Time;durP1;ratioP1;P1;durP2;ratioP2;P2;SDS_P1;SDS_P2;PMS_P1;PMS_P2;Temp;Humidity;BMP_temperature;BMP_pressure;BME280_temperature;BME280_humidity;BME280_pressure;Samples;Min_cycle;Max_cycle;Signal;HPM_P1;HPM_P2
2023/01/19 00:01:52;;;;;;;10.77;8.83;;;;;;;;;;4999064;28;20215;-58
2023/01/19 00:04:20;;;;;;;13.50;9.40;;;;;;;;;;4994896;28;20217;-57
2023/01/19 00:06:49;;;;;;;11.50;9.33;;;;;;;;;;4994921;28;20229;-59
2023/01/19 00:09:16;;;;;;;13.30;8.87;;;;;;;;;;4989920;28;20205;-59
2023/01/19 00:11:43;;;;;;;12.80;9.47;;;;;;;;;;4994705;28;20197;-58
2023/01/19 00:14:12;;;;;;;11.80;8.87;;;;;;;;;;4994927;28;20209;-59
2023/01/19 00:16:39;;;;;;;11.60;8.90;;;;;;;;;;4992000;28;20292;-56
2023/01/19 00:19:06;;;;;;;13.47;9.43;;;;;;;;;;4998593;28;20214;-55
2023/01/19 00:21:34;;;;;;;12.43;9.30;;;;;;;;;;4991931;28;20200;-55
2023/01/19 00:24:01;;;;;;;16.53;9.70;;;;;;;;;;4996412;28;20192;-60
2023/01/19 00:26:31;;;;;;;16.97;9.33;;;;;;;;;;4988493;28;20202;-55
2023/01/19 00:28:59;;;;;;;13.77;9.80;;;;;;;;;;4994151;28;20208;-57
2023/01/19 00:31:28;;;;;;;11.67;9.30;;;;;;;;;;4992563;28;20213;-53
2023/01/19 00:33:55;;;;;;;13.57;9.80;;;;;;;;;;4993477;28;20202;-60
2023/01/19 00:36:23;;;;;;;12.77;9.67;;;;;;;;;;4995033;28;20201;-58
2023/01/19 00:38:50;;;;;;;15.90;9.53;;;;;;;;;;4992641;28;20204;-58
2023/01/19 00:42:38;;;;;;;12.90;9.27;;;;;;;;;;4995303;28;20205;-57
2023/01/19 00:44:09;;;;;;;14.30;9.17;;;;;;;;;;4989282;28;20263;-56
2023/01/19 00:46:37;;;;;;;11.57;8.70;;;;;;;;;;4996453;28;20197;-57
2023/01/19 00:49:04;;;;;;;13.63;9.50;;;;;;;;;;4992503;28;20415;-58
2023/01/19 00:51:31;;;;;;;12.37;9.10;;;;;;;;;;4993600;28;20197;-56
2023/01/19 00:54:03;;;;;;;13.27;9.63;;;;;;;;;;4991280;28;20233;-56
2023/01/19 00:56:30;;;;;;;10.40;8.70;;;;;;;;;;4987446;28;20204;-59
2023/01/19 00:59:00;;;;;;;14.87;9.03;;;;;;;;;;4993462;28;20442;-59
2023/01/19 01:01:27;;;;;;;12.00;8.40;;;;;;;;;;4992394;28;20204;-55
2023/01/19 01:03:56;;;;;;;11.50;8.57;;;;;;;;;;4989511;28;20208;-59
2023/01/19 01:06:23;;;;;;;12.23;9.10;;;;;;;;;;4986757;28;20399;-57
2023/01/19 01:08:51;;;;;;;13.77;9.03;;;;;;;;;;4996639;28;20248;-57
2023/01/19 01:11:18;;;;;;;12.40;8.63;;;;;;;;;;4993367;28;20196;-52
2023/01/19 01:13:45;;;;;;;11.43;9.00;;;;;;;;;;4995791;28;20211;-56
2023/01/19 01:16:14;;;;;;;13.13;9.20;;;;;;;;;;4998677;28;20212;-54
2023/01/19 01:18:42;;;;;;;11.07;8.40;;;;;;;;;;4990849;28;20505;-55
2023/01/19 01:21:11;;;;;;;15.53;8.90;;;;;;;;;;4998051;28;20303;-54
2023/01/19 01:23:38;;;;;;;14.20;9.27;;;;;;;;;;4997209;28;20229;-53
2023/01/19 01:26:05;;;;;;;16.83;9.57;;;;;;;;;;4993749;28;20319;-54
2023/01/19 01:28:36;;;;;;;12.83;8.67;;;;;;;;;;4994857;28;20248;-54
2023/01/19 01:31:03;;;;;;;12.17;8.67;;;;;;;;;;4986212;28;20209;-53
2023/01/19 01:33:33;;;;;;;12.40;8.70;;;;;;;;;;4993559;28;20210;-55
2023/01/19 01:36:00;;;;;;;14.17;9.70;;;;;;;;;;4996667;28;20335;-54
2023/01/19 01:38:29;;;;;;;14.40;10.00;;;;;;;;;;4997019;28;20208;-54
2023/01/19 01:40:57;;;;;;;13.37;9.47;;;;;;;;;;4989909;28;20211;-54
2023/01/19 01:43:42;;;;;;;14.10;10.00;;;;;;;;;;4992736;28;20404;-54
2023/01/19 01:46:09;;;;;;;14.47;10.40;;;;;;;;;;4993207;28;20212;-53
2023/01/19 01:48:39;;;;;;;11.13;9.17;;;;;;;;;;4990508;28;20217;-57
2023/01/19 01:51:24;;;;;;;14.53;10.07;;;;;;;;;;4990271;28;20205;-58
2023/01/19 01:53:56;;;;;;;11.00;9.07;;;;;;;;;;4989355;28;20216;-58
2023/01/19 01:56:26;;;;;;;11.33;9.87;;;;;;;;;;4984263;28;20205;-56
2023/01/19 01:58:54;;;;;;;14.13;9.70;;;;;;;;;;4994372;28;20189;-53
2023/01/19 02:04:06;;;;;;;14.43;10.90;;;;;;;;;;4987511;28;20335;-54
2023/01/19 02:14:46;;;;;;;14.13;10.50;;;;;;;;;;4990813;28;20212;-56
2023/01/19 02:17:13;;;;;;;14.77;10.23;;;;;;;;;;4985310;28;20189;-56
2023/01/19 02:19:42;;;;;;;18.53;11.07;;;;;;;;;;4989465;28;20201;-50
2023/01/19 02:22:12;;;;;;;17.60;11.20;;;;;;;;;;4990717;28;20247;-53
2023/01/19 02:24:40;;;;;;;14.87;11.00;;;;;;;;;;4984619;28;20209;-57
2023/01/19 02:27:08;;;;;;;20.93;11.27;;;;;;;;;;4990894;28;20201;-54
2023/01/19 02:29:36;;;;;;;14.77;11.13;;;;;;;;;;4984537;28;20280;-56
2023/01/19 02:32:03;;;;;;;14.93;11.00;;;;;;;;;;4987338;28;20246;-51
2023/01/19 02:34:31;;;;;;;17.27;11.03;;;;;;;;;;4988505;28;20308;-55
2023/01/19 02:37:00;;;;;;;14.33;11.13;;;;;;;;;;4985195;28;20209;-57
2023/01/19 02:39:29;;;;;;;14.03;10.47;;;;;;;;;;4987716;28;20216;-56
2023/01/19 02:42:01;;;;;;;16.40;11.47;;;;;;;;;;4994428;28;20200;-58
2023/01/19 02:44:31;;;;;;;16.53;11.00;;;;;;;;;;4995699;28;20232;-54
2023/01/19 02:46:58;;;;;;;19.03;11.60;;;;;;;;;;5002108;28;20230;-54
2023/01/19 02:49:28;;;;;;;19.63;11.97;;;;;;;;;;4994596;28;20216;-55
2023/01/19 02:51:56;;;;;;;15.97;11.40;;;;;;;;;;4995333;28;20206;-54
2023/01/19 02:54:31;;;;;;;15.70;11.60;;;;;;;;;;4995243;28;20216;-54
2023/01/19 02:57:09;;;;;;;19.10;11.80;;;;;;;;;;5000770;28;20344;-53
2023/01/19 02:59:44;;;;;;;15.80;11.00;;;;;;;;;;4999330;28;20200;-55
2023/01/19 03:02:17;;;;;;;16.90;12.57;;;;;;;;;;4994984;28;20212;-58
2023/01/19 03:04:50;;;;;;;20.20;12.47;;;;;;;;;;5000941;28;20211;-56
2023/01/19 03:07:21;;;;;;;16.13;11.23;;;;;;;;;;4984900;28;20218;-54
2023/01/19 03:09:51;;;;;;;20.37;12.53;;;;;;;;;;4996628;28;20197;-56
2023/01/19 03:12:24;;;;;;;15.37;11.63;;;;;;;;;;4997865;28;20295;-55
2023/01/19 03:14:54;;;;;;;18.87;13.13;;;;;;;;;;4987715;28;20205;-54
2023/01/19 03:17:22;;;;;;;18.63;12.57;;;;;;;;;;4989539;28;20521;-52
2023/01/19 03:19:50;;;;;;;18.73;12.90;;;;;;;;;;4996419;28;20215;-55
2023/01/19 03:22:19;;;;;;;17.70;13.53;;;;;;;;;;5000081;28;20238;-52
2023/01/19 03:24:46;;;;;;;19.63;12.47;;;;;;;;;;4993568;28;20193;-54
2023/01/19 03:27:15;;;;;;;20.80;12.47;;;;;;;;;;4990522;28;20228;-55
2023/01/19 03:29:47;;;;;;;19.77;13.20;;;;;;;;;;4994569;28;20240;-53
2023/01/19 03:32:16;;;;;;;18.90;12.67;;;;;;;;;;4998675;28;20219;-54
2023/01/19 03:34:45;;;;;;;17.50;12.60;;;;;;;;;;5001766;28;20400;-57
2023/01/19 03:37:14;;;;;;;19.33;11.80;;;;;;;;;;4997839;28;20292;-55
2023/01/19 03:39:41;;;;;;;18.83;11.77;;;;;;;;;;4996152;28;20201;-54
2023/01/19 03:42:10;;;;;;;21.33;12.10;;;;;;;;;;4995237;28;20509;-55
2023/01/19 03:44:39;;;;;;;14.73;11.10;;;;;;;;;;4989723;28;20550;-57
2023/01/19 03:47:09;;;;;;;15.63;11.93;;;;;;;;;;4994042;28;20436;-53
2023/01/19 03:49:37;;;;;;;16.57;10.93;;;;;;;;;;4992994;28;20391;-55
2023/01/19 03:52:04;;;;;;;15.93;10.83;;;;;;;;;;4989444;28;20193;-57
2023/01/19 03:54:31;;;;;;;14.17;10.67;;;;;;;;;;4993582;28;20197;-56
2023/01/19 03:56:59;;;;;;;12.87;10.90;;;;;;;;;;4992040;28;20205;-54
2023/01/19 03:59:26;;;;;;;16.53;10.87;;;;;;;;;;4992498;28;20205;-55
2023/01/19 04:01:53;;;;;;;13.77;10.33;;;;;;;;;;4992321;28;20300;-55
2023/01/19 04:04:25;;;;;;;12.87;10.07;;;;;;;;;;4988204;28;20291;-56
2023/01/19 04:06:52;;;;;;;12.87;10.60;;;;;;;;;;4995184;28;20205;-53
2023/01/19 04:09:19;;;;;;;14.10;10.97;;;;;;;;;;4988339;28;20330;-53
2023/01/19 04:11:46;;;;;;;14.57;10.70;;;;;;;;;;4988400;28;20280;-51
2023/01/19 04:14:13;;;;;;;15.37;10.00;;;;;;;;;;4993323;28;20205;-51
2023/01/19 04:16:41;;;;;;;14.77;10.17;;;;;;;;;;4991937;28;20204;-58
2023/01/19 04:19:08;;;;;;;11.83;9.50;;;;;;;;;;4990582;28;20520;-54
2023/01/19 04:21:36;;;;;;;11.17;8.90;;;;;;;;;;4994884;28;20268;-55
2023/01/19 04:24:03;;;;;;;13.27;9.77;;;;;;;;;;4990997;28;20295;-55
2023/01/19 04:26:30;;;;;;;11.63;9.63;;;;;;;;;;4993622;28;20201;-56
2023/01/19 04:28:58;;;;;;;11.60;8.77;;;;;;;;;;4989950;28;20446;-51
2023/01/19 04:31:26;;;;;;;11.97;8.83;;;;;;;;;;4989968;28;20208;-55
2023/01/19 04:33:53;;;;;;;11.10;8.20;;;;;;;;;;4994242;28;20292;-55
2023/01/19 04:36:20;;;;;;;13.40;9.43;;;;;;;;;;4993529;28;20196;-51
2023/01/19 04:38:48;;;;;;;9.57;8.30;;;;;;;;;;4992820;28;20423;-51
2023/01/19 04:41:16;;;;;;;10.77;8.93;;;;;;;;;;4996550;28;20200;-55
2023/01/19 04:43:43;;;;;;;11.43;8.80;;;;;;;;;;4988597;28;20203;-54
2023/01/19 04:46:10;;;;;;;14.20;9.33;;;;;;;;;;4997216;28;20217;-53
2023/01/19 04:48:37;;;;;;;10.33;8.90;;;;;;;;;;4995182;28;20314;-51
2023/01/19 04:51:04;;;;;;;12.50;9.23;;;;;;;;;;4996894;28;20293;-58
2023/01/19 04:53:32;;;;;;;9.67;8.30;;;;;;;;;;4993421;28;20196;-57
2023/01/19 04:56:00;;;;;;;13.50;9.23;;;;;;;;;;4995171;28;20208;-55
2023/01/19 04:58:27;;;;;;;11.70;9.63;;;;;;;;;;4990318;28;20211;-54
2023/01/19 05:00:54;;;;;;;13.80;9.53;;;;;;;;;;4989205;28;20337;-57
2023/01/19 05:03:21;;;;;;;11.47;8.77;;;;;;;;;;4994156;28;20205;-53
2023/01/19 05:05:49;;;;;;;12.73;9.50;;;;;;;;;;4998080;28;20302;-53
2023/01/19 05:08:16;;;;;;;11.77;9.70;;;;;;;;;;4993252;28;20211;-57
2023/01/19 05:10:43;;;;;;;13.43;9.70;;;;;;;;;;4990760;28;20273;-56
2023/01/19 05:13:12;;;;;;;14.93;9.57;;;;;;;;;;4990786;28;20235;-55
2023/01/19 05:15:40;;;;;;;13.97;9.87;;;;;;;;;;4988792;28;20208;-58
2023/01/19 05:18:07;;;;;;;12.07;9.70;;;;;;;;;;4993985;28;20196;-56
2023/01/19 05:20:34;;;;;;;10.73;8.67;;;;;;;;;;5000307;28;20207;-57
2023/01/19 05:23:01;;;;;;;12.77;9.00;;;;;;;;;;4994384;28;20225;-56
2023/01/19 05:25:28;;;;;;;11.27;9.53;;;;;;;;;;4996341;28;20209;-57
2023/01/19 05:27:55;;;;;;;11.17;8.23;;;;;;;;;;4989291;28;20213;-57
2023/01/19 05:30:24;;;;;;;11.40;8.13;;;;;;;;;;4990626;28;20288;-53
2023/01/19 05:32:51;;;;;;;9.90;8.90;;;;;;;;;;4995417;28;20192;-57
2023/01/19 05:35:18;;;;;;;11.43;9.00;;;;;;;;;;4990614;28;20189;-55
2023/01/19 05:37:46;;;;;;;10.40;8.43;;;;;;;;;;4977045;28;20228;-53
2023/01/19 05:40:14;;;;;;;13.10;9.03;;;;;;;;;;4987338;28;20201;-58
2023/01/19 05:42:42;;;;;;;9.43;7.93;;;;;;;;;;4991852;28;20204;-56
2023/01/19 05:45:10;;;;;;;10.60;8.30;;;;;;;;;;4989024;28;20278;-58
2023/01/19 05:47:39;;;;;;;10.63;8.53;;;;;;;;;;4985011;28;20407;-57
2023/01/19 05:50:06;;;;;;;10.80;9.17;;;;;;;;;;4989928;28;20212;-56
2023/01/19 05:52:34;;;;;;;13.50;9.00;;;;;;;;;;4983298;28;20449;-57
2023/01/19 05:55:01;;;;;;;10.50;8.07;;;;;;;;;;4991547;28;20224;-58
2023/01/19 05:57:28;;;;;;;10.77;7.77;;;;;;;;;;4997643;28;20762;-55
2023/01/19 05:59:55;;;;;;;8.93;7.73;;;;;;;;;;4988666;28;20205;-58
2023/01/19 06:02:27;;;;;;;9.93;7.97;;;;;;;;;;4997129;28;20201;-57
2023/01/19 06:04:56;;;;;;;9.03;7.80;;;;;;;;;;4996855;28;20211;-56
2023/01/19 06:07:23;;;;;;;11.00;7.70;;;;;;;;;;5006706;28;20236;-57
2023/01/19 06:09:50;;;;;;;11.53;7.87;;;;;;;;;;4996554;28;20487;-58
2023/01/19 06:12:18;;;;;;;11.97;7.97;;;;;;;;;;4990256;28;20418;-59
2023/01/19 06:14:45;;;;;;;8.47;6.97;;;;;;;;;;4988811;28;20220;-56
2023/01/19 06:17:12;;;;;;;11.37;7.90;;;;;;;;;;4993928;28;20248;-58
2023/01/19 06:19:40;;;;;;;8.67;7.27;;;;;;;;;;4997552;28;20189;-59
2023/01/19 06:22:09;;;;;;;7.67;6.83;;;;;;;;;;4988882;28;20228;-59
2023/01/19 06:24:36;;;;;;;9.37;6.83;;;;;;;;;;4987666;28;20206;-59
2023/01/19 06:27:05;;;;;;;8.53;7.30;;;;;;;;;;4993275;28;20211;-56
2023/01/19 06:29:32;;;;;;;7.87;6.83;;;;;;;;;;4991956;28;20367;-61
2023/01/19 06:31:59;;;;;;;9.47;6.60;;;;;;;;;;4989543;28;20293;-59
2023/01/19 06:34:27;;;;;;;7.87;6.93;;;;;;;;;;4993262;28;20215;-52
2023/01/19 06:36:54;;;;;;;8.70;6.50;;;;;;;;;;4991269;28;20301;-52
2023/01/19 06:39:23;;;;;;;8.60;6.43;;;;;;;;;;4990527;28;20189;-57
2023/01/19 06:41:50;;;;;;;9.43;7.23;;;;;;;;;;4994270;28;20216;-54
2023/01/19 06:44:17;;;;;;;10.80;7.53;;;;;;;;;;4989586;28;20259;-54
2023/01/19 06:46:44;;;;;;;10.67;7.40;;;;;;;;;;4995109;28;20216;-57
2023/01/19 06:49:12;;;;;;;9.77;7.77;;;;;;;;;;4985592;28;20221;-54
2023/01/19 06:51:39;;;;;;;9.53;7.77;;;;;;;;;;4987101;28;20504;-55
2023/01/19 06:54:10;;;;;;;10.03;8.57;;;;;;;;;;4993492;28;20201;-57
2023/01/19 06:56:39;;;;;;;9.23;7.77;;;;;;;;;;4975886;28;20302;-57
2023/01/19 06:59:06;;;;;;;9.80;8.63;;;;;;;;;;4984732;28;20320;-56
2023/01/19 07:01:33;;;;;;;9.60;7.60;;;;;;;;;;4978337;28;20216;-57
2023/01/19 07:04:00;;;;;;;10.77;8.73;;;;;;;;;;4980270;28;20201;-58
2023/01/19 07:06:27;;;;;;;10.13;7.93;;;;;;;;;;4991247;28;20306;-58
2023/01/19 07:08:55;;;;;;;12.03;8.77;;;;;;;;;;4990816;28;20201;-59
2023/01/19 07:11:22;;;;;;;11.17;8.67;;;;;;;;;;4987058;28;20350;-56
2023/01/19 07:13:54;;;;;;;12.33;8.40;;;;;;;;;;4987172;28;20240;-53
2023/01/19 07:16:21;;;;;;;10.50;8.23;;;;;;;;;;4995815;28;20300;-58
2023/01/19 07:18:49;;;;;;;9.40;8.00;;;;;;;;;;4988098;28;20205;-56
2023/01/19 07:21:16;;;;;;;10.57;8.07;;;;;;;;;;4981259;28;20205;-60
2023/01/19 07:23:48;;;;;;;11.10;8.17;;;;;;;;;;4997625;28;20220;-59
2023/01/19 07:26:17;;;;;;;9.43;8.10;;;;;;;;;;4992826;28;20215;-59
2023/01/19 07:28:44;;;;;;;10.00;7.03;;;;;;;;;;4993335;28;20275;-58
2023/01/19 07:31:13;;;;;;;9.43;7.63;;;;;;;;;;4990792;28;20213;-57
2023/01/19 07:33:40;;;;;;;9.40;7.40;;;;;;;;;;4994594;28;20189;-56
2023/01/19 07:36:08;;;;;;;8.80;7.10;;;;;;;;;;4991432;28;20210;-58
2023/01/19 07:38:35;;;;;;;9.43;7.80;;;;;;;;;;4993487;28;20278;-58
2023/01/19 07:41:03;;;;;;;10.87;8.23;;;;;;;;;;4993780;28;20209;-57
2023/01/19 07:43:31;;;;;;;10.33;8.53;;;;;;;;;;4993036;28;20196;-58
2023/01/19 07:46:00;;;;;;;11.07;8.43;;;;;;;;;;4995753;28;20225;-57
2023/01/19 07:48:28;;;;;;;10.30;8.70;;;;;;;;;;4991799;28;20211;-59
2023/01/19 07:51:00;;;;;;;11.50;8.40;;;;;;;;;;4994311;28;20284;-59
2023/01/19 07:53:27;;;;;;;11.33;8.37;;;;;;;;;;4994101;28;20219;-58
2023/01/19 07:55:55;;;;;;;13.60;10.07;;;;;;;;;;4994104;28;20216;-51
2023/01/19 07:58:23;;;;;;;11.53;9.07;;;;;;;;;;4995473;28;20435;-53
2023/01/19 08:00:50;;;;;;;11.90;8.30;;;;;;;;;;4987525;28;20376;-57
2023/01/19 08:03:17;;;;;;;10.70;8.47;;;;;;;;;;4996724;28;20361;-55
2023/01/19 08:05:50;;;;;;;12.10;8.90;;;;;;;;;;4992554;28;20197;-58
2023/01/19 08:08:17;;;;;;;12.37;7.90;;;;;;;;;;4992695;28;20216;-55
2023/01/19 08:10:45;;;;;;;12.33;9.10;;;;;;;;;;4992551;28;20256;-55
2023/01/19 08:13:12;;;;;;;10.07;7.80;;;;;;;;;;4986222;28;20288;-56
2023/01/19 08:15:39;;;;;;;11.37;8.80;;;;;;;;;;4992836;28;20627;-56
2023/01/19 08:18:08;;;;;;;11.63;9.27;;;;;;;;;;4988830;28;20243;-55
2023/01/19 08:20:36;;;;;;;13.80;9.63;;;;;;;;;;4997008;28;20209;-55
2023/01/19 08:23:05;;;;;;;13.23;9.87;;;;;;;;;;4992943;28;20344;-54
2023/01/19 08:25:35;;;;;;;13.33;9.97;;;;;;;;;;4992423;28;20209;-56
2023/01/19 08:28:03;;;;;;;13.70;10.20;;;;;;;;;;4995605;28;20213;-58
2023/01/19 08:30:30;;;;;;;12.00;9.17;;;;;;;;;;4989409;28;20658;-59
2023/01/19 08:33:02;;;;;;;13.93;9.50;;;;;;;;;;4995749;28;20209;-57
2023/01/19 08:35:30;;;;;;;12.20;8.77;;;;;;;;;;4990467;28;20368;-58
2023/01/19 08:38:00;;;;;;;11.97;9.40;;;;;;;;;;4988650;28;20212;-58
2023/01/19 08:40:28;;;;;;;14.23;9.63;;;;;;;;;;4990674;28;20200;-59
2023/01/19 08:43:02;;;;;;;11.33;9.37;;;;;;;;;;4994333;28;20220;-56
2023/01/19 08:45:29;;;;;;;12.80;9.30;;;;;;;;;;4996155;28;20212;-55
2023/01/19 08:47:57;;;;;;;14.67;9.57;;;;;;;;;;4993305;28;20593;-58
2023/01/19 08:50:25;;;;;;;11.57;9.47;;;;;;;;;;4994177;28;20218;-60
2023/01/19 08:52:52;;;;;;;12.17;9.43;;;;;;;;;;4986412;28;20204;-59
2023/01/19 08:55:19;;;;;;;12.47;9.50;;;;;;;;;;4993167;28;20205;-56
2023/01/19 08:57:51;;;;;;;14.67;9.47;;;;;;;;;;4991285;28;20196;-58
2023/01/19 09:00:19;;;;;;;13.87;9.70;;;;;;;;;;4995948;28;20251;-59
2023/01/19 09:02:46;;;;;;;11.47;8.67;;;;;;;;;;4996968;28;20209;-52
2023/01/19 09:05:13;;;;;;;12.47;9.87;;;;;;;;;;4989611;28;20209;-57
2023/01/19 09:07:40;;;;;;;10.73;8.97;;;;;;;;;;4995183;28;20332;-58
2023/01/19 09:10:09;;;;;;;10.57;9.03;;;;;;;;;;4990224;28;20408;-57
2023/01/19 09:12:36;;;;;;;10.23;8.83;;;;;;;;;;4979803;28;20209;-57
2023/01/19 09:15:05;;;;;;;9.70;8.60;;;;;;;;;;4977846;28;20381;-56
2023/01/19 09:17:33;;;;;;;11.33;8.03;;;;;;;;;;4983538;28;20532;-56
2023/01/19 09:20:00;;;;;;;10.33;9.10;;;;;;;;;;4983743;28;20332;-58
2023/01/19 09:22:27;;;;;;;10.70;8.80;;;;;;;;;;4996007;28;20243;-57
2023/01/19 09:24:55;;;;;;;10.80;8.37;;;;;;;;;;4987300;28;20205;-54
2023/01/19 09:27:23;;;;;;;10.37;7.90;;;;;;;;;;4990103;28;20209;-56
2023/01/19 09:29:52;;;;;;;11.67;8.30;;;;;;;;;;4993091;28;20213;-52
2023/01/19 09:32:22;;;;;;;10.40;8.20;;;;;;;;;;4997628;28;20212;-53
2023/01/19 09:34:50;;;;;;;8.03;7.23;;;;;;;;;;4987530;28;20332;-55
2023/01/19 09:37:17;;;;;;;8.20;7.40;;;;;;;;;;4994365;28;20204;-58
2023/01/19 09:39:44;;;;;;;9.17;7.43;;;;;;;;;;4996280;28;20423;-58
2023/01/19 09:42:19;;;;;;;9.13;7.53;;;;;;;;;;4988413;28;20208;-56
2023/01/19 09:44:47;;;;;;;9.87;7.40;;;;;;;;;;4988608;28;20211;-55
2023/01/19 09:47:14;;;;;;;10.93;8.00;;;;;;;;;;4988272;28;20205;-55
2023/01/19 09:49:45;;;;;;;10.73;7.70;;;;;;;;;;4991519;28;20244;-54
2023/01/19 09:52:13;;;;;;;10.77;8.13;;;;;;;;;;4993151;28;20216;-54
2023/01/19 09:54:43;;;;;;;9.97;7.90;;;;;;;;;;4985390;28;20513;-57
2023/01/19 09:57:11;;;;;;;8.10;7.10;;;;;;;;;;4992637;28;20200;-54
2023/01/19 09:59:38;;;;;;;9.40;7.97;;;;;;;;;;4990711;28;20197;-55
2023/01/19 10:02:07;;;;;;;10.67;8.37;;;;;;;;;;4992689;28;20285;-56
2023/01/19 10:04:37;;;;;;;10.07;7.80;;;;;;;;;;4987833;28;20321;-53
2023/01/19 10:07:09;;;;;;;10.77;7.47;;;;;;;;;;4997033;28;20196;-53
2023/01/19 10:09:41;;;;;;;12.57;8.20;;;;;;;;;;4995375;28;20193;-54
2023/01/19 10:12:12;;;;;;;9.13;8.13;;;;;;;;;;4992469;28;20201;-55
2023/01/19 10:14:42;;;;;;;12.67;7.80;;;;;;;;;;4994869;28;20192;-56
2023/01/19 10:17:17;;;;;;;13.17;8.20;;;;;;;;;;4987275;28;20213;-54
2023/01/19 10:19:48;;;;;;;8.87;7.80;;;;;;;;;;4989024;28;20275;-53
2023/01/19 10:22:21;;;;;;;9.10;8.20;;;;;;;;;;4996743;28;20223;-54
2023/01/19 10:24:49;;;;;;;9.97;7.80;;;;;;;;;;4989203;28;20251;-56
2023/01/19 10:27:18;;;;;;;10.63;7.50;;;;;;;;;;4994993;28;20482;-57
2023/01/19 10:29:46;;;;;;;9.57;8.20;;;;;;;;;;4988321;28;20216;-55
2023/01/19 10:32:15;;;;;;;12.37;7.87;;;;;;;;;;4989101;28;20227;-52
2023/01/19 10:34:43;;;;;;;10.07;7.87;;;;;;;;;;4985052;28;20349;-55
2023/01/19 10:37:18;;;;;;;8.60;7.57;;;;;;;;;;4986965;28;20267;-55
2023/01/19 10:39:47;;;;;;;10.40;7.60;;;;;;;;;;4990420;28;20219;-55
2023/01/19 10:42:16;;;;;;;8.70;7.80;;;;;;;;;;4992303;28;20212;-50
2023/01/19 10:44:45;;;;;;;8.47;7.57;;;;;;;;;;4987087;28;20263;-52
2023/01/19 10:47:16;;;;;;;9.63;7.73;;;;;;;;;;4999410;28;20208;-54
2023/01/19 10:49:44;;;;;;;8.60;7.37;;;;;;;;;;4995645;28;20405;-55
2023/01/19 10:52:19;;;;;;;9.63;7.23;;;;;;;;;;4992868;28;20228;-55
2023/01/19 10:54:48;;;;;;;8.73;6.97;;;;;;;;;;4987754;28;20410;-52
2023/01/19 10:57:23;;;;;;;7.57;6.87;;;;;;;;;;4984565;28;20217;-56
2023/01/19 10:59:51;;;;;;;8.97;6.63;;;;;;;;;;4988822;28;20216;-55
2023/01/19 11:02:19;;;;;;;9.10;7.10;;;;;;;;;;4992650;28;20424;-55
2023/01/19 11:04:48;;;;;;;8.10;6.97;;;;;;;;;;4995958;28;20263;-57
2023/01/19 11:07:16;;;;;;;8.93;7.53;;;;;;;;;;4989886;28;20233;-55
2023/01/19 11:09:45;;;;;;;11.33;7.13;;;;;;;;;;5003325;28;20209;-55
2023/01/19 11:12:21;;;;;;;9.50;7.83;;;;;;;;;;4995603;28;20319;-55
2023/01/19 11:14:49;;;;;;;11.10;8.23;;;;;;;;;;4993106;28;20263;-55
2023/01/19 11:17:21;;;;;;;10.27;7.70;;;;;;;;;;5005072;28;20283;-55
2023/01/19 11:19:59;;;;;;;8.17;7.33;;;;;;;;;;4994904;28;20201;-57
2023/01/19 11:22:28;;;;;;;9.80;7.23;;;;;;;;;;4983795;28;20533;-54
2023/01/19 11:24:59;;;;;;;9.43;7.57;;;;;;;;;;4989807;28;20225;-57
2023/01/19 11:27:28;;;;;;;8.17;7.03;;;;;;;;;;4989774;28;20200;-53
2023/01/19 11:30:04;;;;;;;11.47;6.70;;;;;;;;;;4988397;28;20205;-52
2023/01/19 11:32:34;;;;;;;9.77;7.00;;;;;;;;;;4994490;28;20201;-52
2023/01/19 11:35:01;;;;;;;8.73;6.53;;;;;;;;;;4987390;28;20216;-56
2023/01/19 11:37:33;;;;;;;9.73;6.80;;;;;;;;;;4991219;28;20271;-52
2023/01/19 11:40:03;;;;;;;7.57;6.50;;;;;;;;;;4993811;28;20292;-54
2023/01/19 11:42:35;;;;;;;8.97;6.60;;;;;;;;;;4997984;28;20254;-54
2023/01/19 11:45:05;;;;;;;7.13;6.43;;;;;;;;;;4988506;28;20209;-54
2023/01/19 11:47:36;;;;;;;8.83;7.60;;;;;;;;;;4985674;28;20212;-55
2023/01/19 11:50:06;;;;;;;8.67;7.27;;;;;;;;;;4989952;28;20208;-58
2023/01/19 11:52:35;;;;;;;9.30;6.87;;;;;;;;;;4997371;28;20212;-53
2023/01/19 11:55:06;;;;;;;8.63;7.10;;;;;;;;;;4993448;28;20222;-58
2023/01/19 11:57:34;;;;;;;10.83;7.00;;;;;;;;;;4994998;28;20220;-58
2023/01/19 12:05:12;;;;;;;12.83;6.90;;;;;;;;;;5031291;28;20239;-59
2023/01/19 12:07:39;;;;;;;8.27;6.83;;;;;;;;;;5036646;28;20204;-58
2023/01/19 12:10:15;;;;;;;7.57;6.60;;;;;;;;;;5031462;28;20236;-59
2023/01/19 12:12:44;;;;;;;9.73;7.07;;;;;;;;;;5024600;28;20206;-60
2023/01/19 12:15:21;;;;;;;9.30;7.07;;;;;;;;;;5023992;28;20204;-58
2023/01/19 12:17:49;;;;;;;7.07;6.37;;;;;;;;;;5023801;28;20297;-56
2023/01/19 12:20:25;;;;;;;9.07;6.97;;;;;;;;;;5029419;28;20299;-60
2023/01/19 12:22:58;;;;;;;9.77;7.37;;;;;;;;;;5031491;28;20208;-59
2023/01/19 12:25:26;;;;;;;8.83;7.30;;;;;;;;;;5029561;28;20299;-56
2023/01/19 12:27:55;;;;;;;10.07;7.23;;;;;;;;;;5036750;28;20201;-59
2023/01/19 12:30:23;;;;;;;8.40;6.50;;;;;;;;;;5029763;28;20215;-59
2023/01/19 12:32:51;;;;;;;10.00;6.83;;;;;;;;;;5030537;28;21522;-56
2023/01/19 12:35:38;;;;;;;9.30;6.50;;;;;;;;;;5024828;28;20203;-59
2023/01/19 12:38:23;;;;;;;9.80;6.50;;;;;;;;;;5015958;28;20212;-56
2023/01/19 12:40:50;;;;;;;8.77;6.60;;;;;;;;;;5033116;28;20199;-59
2023/01/19 12:43:19;;;;;;;7.90;6.20;;;;;;;;;;5039674;28;20208;-57
2023/01/19 12:45:47;;;;;;;6.70;6.00;;;;;;;;;;5053269;28;20253;-59
2023/01/19 12:48:25;;;;;;;7.90;6.40;;;;;;;;;;5035033;28;20196;-59
2023/01/19 12:50:52;;;;;;;6.10;5.50;;;;;;;;;;5035931;28;20222;-58
2023/01/19 12:53:21;;;;;;;8.37;6.13;;;;;;;;;;5030764;28;20195;-60
2023/01/19 12:55:58;;;;;;;7.33;5.80;;;;;;;;;;5030379;28;20285;-60
2023/01/19 12:58:27;;;;;;;9.20;7.03;;;;;;;;;;5034058;28;20204;-58
2023/01/19 13:01:09;;;;;;;9.70;5.57;;;;;;;;;;5032485;28;20216;-59
2023/01/19 13:03:44;;;;;;;7.23;5.53;;;;;;;;;;5031069;28;20317;-59
2023/01/19 13:06:11;;;;;;;7.50;5.10;;;;;;;;;;5040152;28;20217;-60
2023/01/19 13:08:57;;;;;;;6.77;5.70;;;;;;;;;;5033631;28;20287;-58
2023/01/19 13:11:25;;;;;;;6.40;5.80;;;;;;;;;;5036737;28;20226;-60
2023/01/19 13:14:26;;;;;;;6.67;5.40;;;;;;;;;;5028388;28;20211;-60
2023/01/19 13:16:59;;;;;;;6.87;5.20;;;;;;;;;;5027567;28;20207;-57
2023/01/19 13:19:35;;;;;;;6.37;5.43;;;;;;;;;;5027085;28;20218;-57
2023/01/19 13:22:29;;;;;;;8.33;5.77;;;;;;;;;;5030038;28;20203;-57
2023/01/19 13:25:07;;;;;;;7.93;5.50;;;;;;;;;;5026061;28;20204;-58
2023/01/19 13:27:35;;;;;;;7.23;5.37;;;;;;;;;;5034015;28;20329;-59
2023/01/19 13:30:03;;;;;;;8.73;5.73;;;;;;;;;;5031670;28;20212;-58
2023/01/19 13:32:31;;;;;;;5.93;5.30;;;;;;;;;;5036992;28;20229;-58
2023/01/19 13:35:00;;;;;;;8.40;6.20;;;;;;;;;;5031379;28;20602;-56
2023/01/19 13:37:32;;;;;;;7.47;5.37;;;;;;;;;;5027846;28;20216;-60
2023/01/19 13:40:00;;;;;;;5.70;5.10;;;;;;;;;;5032343;28;20200;-59
2023/01/19 13:42:30;;;;;;;7.27;5.50;;;;;;;;;;5030828;28;20344;-58
2023/01/19 13:44:59;;;;;;;6.77;5.90;;;;;;;;;;5031111;28;20214;-57
2023/01/19 13:47:29;;;;;;;6.33;5.37;;;;;;;;;;5035818;28;20195;-56
2023/01/19 13:49:59;;;;;;;6.40;5.40;;;;;;;;;;5028891;28;20483;-54
2023/01/19 13:52:27;;;;;;;7.00;5.80;;;;;;;;;;5035417;28;20285;-57
2023/01/19 13:54:55;;;;;;;7.37;5.90;;;;;;;;;;5034011;28;20199;-61
2023/01/19 13:57:25;;;;;;;8.43;5.80;;;;;;;;;;5031691;28;20214;-58
2023/01/19 14:00:06;;;;;;;6.77;5.50;;;;;;;;;;5029311;28;20203;-56
2023/01/19 14:02:33;;;;;;;12.87;8.33;;;;;;;;;;5029355;28;20217;-58
2023/01/19 14:05:14;;;;;;;8.97;6.53;;;;;;;;;;5031012;28;20242;-58
2023/01/19 14:07:43;;;;;;;7.83;6.17;;;;;;;;;;5025079;28;20289;-57
2023/01/19 14:10:15;;;;;;;7.40;6.03;;;;;;;;;;5027493;28;20200;-59
2023/01/19 14:12:42;;;;;;;9.23;6.50;;;;;;;;;;5025561;28;20254;-54
2023/01/19 14:15:13;;;;;;;6.37;5.77;;;;;;;;;;5027201;28;20210;-59
2023/01/19 14:17:40;;;;;;;7.83;6.23;;;;;;;;;;5030039;28;20211;-57
2023/01/19 14:20:28;;;;;;;7.20;5.67;;;;;;;;;;5031385;28;20203;-57
2023/01/19 14:22:56;;;;;;;6.63;5.90;;;;;;;;;;5022217;28;20231;-55
2023/01/19 14:25:27;;;;;;;7.63;6.13;;;;;;;;;;5031245;28;20199;-58
2023/01/19 14:28:09;;;;;;;7.77;5.87;;;;;;;;;;5028321;28;20206;-57
2023/01/19 14:30:36;;;;;;;8.30;6.70;;;;;;;;;;5027305;28;20214;-57
2023/01/19 14:33:04;;;;;;;6.57;5.90;;;;;;;;;;5029335;28;20231;-53
2023/01/19 14:35:33;;;;;;;9.03;6.20;;;;;;;;;;5028738;28;20287;-56
2023/01/19 14:38:03;;;;;;;8.80;5.83;;;;;;;;;;5037390;28;20211;-57
2023/01/19 14:40:31;;;;;;;8.33;6.37;;;;;;;;;;5030620;28;20195;-58
2023/01/19 14:43:01;;;;;;;8.00;6.37;;;;;;;;;;5036733;28;20628;-55
2023/01/19 14:45:30;;;;;;;7.13;5.70;;;;;;;;;;5031718;28;20232;-56
2023/01/19 14:47:59;;;;;;;7.63;6.13;;;;;;;;;;5032628;28;20208;-54
2023/01/19 14:50:28;;;;;;;8.13;6.07;;;;;;;;;;5035911;28;20210;-57
2023/01/19 14:52:56;;;;;;;7.13;6.00;;;;;;;;;;5042709;28;20310;-55
2023/01/19 14:55:29;;;;;;;8.10;6.10;;;;;;;;;;5026426;28;20209;-58
2023/01/19 14:57:56;;;;;;;7.47;5.83;;;;;;;;;;5032974;28;20195;-58
2023/01/19 15:00:24;;;;;;;7.67;6.07;;;;;;;;;;5035600;28;20423;-56
2023/01/19 15:02:51;;;;;;;9.37;6.23;;;;;;;;;;5025640;28;20197;-54